sensor_id;sensor_type;location;lat;lon;timestamp;temperature;humidity
45643;DHT22;31358;46.008;11.144;2024-01-07T00:01:02;6.10;99.90
45643;DHT22;31358;46.008;11.144;2024-01-07T00:03:28;5.90;99.90
45643;DHT22;31358;46.008;11.144;2024-01-07T00:05:53;5.90;99.90
45643;DHT22;31358;46.008;11.144;2024-01-07T00:08:19;6.00;99.90
45643;DHT22;31358;46.008;11.144;2024-01-07T00:10:46;5.90;99.90
45643;DHT22;31358;46.008;11.144;2024-01-07T00:13:12;5.90;99.90
45643;DHT22;31358;46.008;11.144;2024-01-07T00:15:37;6.20;99.90
45643;DHT22;31358;46.008;11.144;2024-01-07T00:18:03;6.20;99.90
45643;DHT22;31358;46.008;11.144;2024-01-07T00:20:29;6.20;99.90
45643;DHT22;31358;46.008;11.144;2024-01-07T00:22:55;6.20;99.90
45643;DHT22;31358;46.008;11.144;2024-01-07T00:25:21;6.30;99.90
45643;DHT22;31358;46.008;11.144;2024-01-07T00:27:47;6.30;99.90
45643;DHT22;31358;46.008;11.144;2024-01-07T00:30:13;6.30;99.90
45643;DHT22;31358;46.008;11.144;2024-01-07T00:32:39;6.30;99.90
45643;DHT22;31358;46.008;11.144;2024-01-07T00:35:05;6.40;99.90
45643;DHT22;31358;46.008;11.144;2024-01-07T00:37:30;6.40;99.90
45643;DHT22;31358;46.008;11.144;2024-01-07T00:39:56;6.30;99.90
45643;DHT22;31358;46.008;11.144;2024-01-07T00:42:22;6.40;99.90
45643;DHT22;31358;46.008;11.144;2024-01-07T00:44:47;6.40;99.90
45643;DHT22;31358;46.008;11.144;2024-01-07T00:47:13;6.20;99.90
45643;DHT22;31358;46.008;11.144;2024-01-07T00:49:39;6.30;99.90
45643;DHT22;31358;46.008;11.144;2024-01-07T00:52:05;6.30;99.90
45643;DHT22;31358;46.008;11.144;2024-01-07T00:54:31;6.30;99.90
45643;DHT22;31358;46.008;11.144;2024-01-07T00:56:57;6.50;99.90
45643;DHT22;31358;46.008;11.144;2024-01-07T00:59:22;6.50;99.90
45643;DHT22;31358;46.008;11.144;2024-01-07T01:01:48;6.60;99.90
45643;DHT22;31358;46.008;11.144;2024-01-07T01:04:14;6.60;99.90
45643;DHT22;31358;46.008;11.144;2024-01-07T01:06:39;6.60;99.90
45643;DHT22;31358;46.008;11.144;2024-01-07T01:09:05;6.60;99.90
45643;DHT22;31358;46.008;11.144;2024-01-07T01:11:31;6.40;99.90
45643;DHT22;31358;46.008;11.144;2024-01-07T01:13:56;6.60;99.90
45643;DHT22;31358;46.008;11.144;2024-01-07T01:16:22;6.70;99.90
45643;DHT22;31358;46.008;11.144;2024-01-07T01:18:49;6.60;99.90
45643;DHT22;31358;46.008;11.144;2024-01-07T01:21:15;6.50;99.90
45643;DHT22;31358;46.008;11.144;2024-01-07T01:23:41;6.40;99.90
45643;DHT22;31358;46.008;11.144;2024-01-07T01:26:06;6.50;99.90
45643;DHT22;31358;46.008;11.144;2024-01-07T01:28:32;6.60;99.90
45643;DHT22;31358;46.008;11.144;2024-01-07T01:30:58;6.60;99.90
45643;DHT22;31358;46.008;11.144;2024-01-07T01:33:23;6.60;99.90
45643;DHT22;31358;46.008;11.144;2024-01-07T01:35:49;6.50;99.90
45643;DHT22;31358;46.008;11.144;2024-01-07T01:38:15;6.70;99.90
45643;DHT22;31358;46.008;11.144;2024-01-07T01:40:40;6.70;99.90
45643;DHT22;31358;46.008;11.144;2024-01-07T01:43:06;6.70;99.90
45643;DHT22;31358;46.008;11.144;2024-01-07T01:45:32;6.70;99.90
45643;DHT22;31358;46.008;11.144;2024-01-07T01:47:57;6.70;99.90
45643;DHT22;31358;46.008;11.144;2024-01-07T01:50:23;6.70;99.90
45643;DHT22;31358;46.008;11.144;2024-01-07T01:52:49;6.70;99.90
45643;DHT22;31358;46.008;11.144;2024-01-07T01:55:16;6.60;99.90
45643;DHT22;31358;46.008;11.144;2024-01-07T01:57:43;6.70;99.90
45643;DHT22;31358;46.008;11.144;2024-01-07T02:00:11;6.70;99.90
45643;DHT22;31358;46.008;11.144;2024-01-07T02:02:37;6.60;99.90
45643;DHT22;31358;46.008;11.144;2024-01-07T02:05:04;6.50;99.90
45643;DHT22;31358;46.008;11.144;2024-01-07T02:07:30;6.50;99.90
45643;DHT22;31358;46.008;11.144;2024-01-07T02:09:56;6.40;99.90
45643;DHT22;31358;46.008;11.144;2024-01-07T02:12:22;6.40;99.90
45643;DHT22;31358;46.008;11.144;2024-01-07T02:14:48;6.40;99.90
45643;DHT22;31358;46.008;11.144;2024-01-07T02:17:14;6.40;99.90
45643;DHT22;31358;46.008;11.144;2024-01-07T02:19:40;6.40;99.90
45643;DHT22;31358;46.008;11.144;2024-01-07T02:22:06;6.40;99.90
45643;DHT22;31358;46.008;11.144;2024-01-07T02:24:32;6.50;99.90
45643;DHT22;31358;46.008;11.144;2024-01-07T02:26:58;6.30;99.90
45643;DHT22;31358;46.008;11.144;2024-01-07T02:29:28;6.30;99.90
45643;DHT22;31358;46.008;11.144;2024-01-07T02:31:53;6.30;99.90
45643;DHT22;31358;46.008;11.144;2024-01-07T02:34:19;6.40;99.90
45643;DHT22;31358;46.008;11.144;2024-01-07T02:36:44;6.40;99.90
45643;DHT22;31358;46.008;11.144;2024-01-07T02:39:10;6.40;99.90
45643;DHT22;31358;46.008;11.144;2024-01-07T02:41:36;6.40;99.90
45643;DHT22;31358;46.008;11.144;2024-01-07T02:44:01;6.40;99.90
45643;DHT22;31358;46.008;11.144;2024-01-07T02:46:27;6.50;99.90
45643;DHT22;31358;46.008;11.144;2024-01-07T02:48:53;6.50;99.90
45643;DHT22;31358;46.008;11.144;2024-01-07T02:51:18;6.50;99.90
45643;DHT22;31358;46.008;11.144;2024-01-07T02:53:44;6.40;99.90
45643;DHT22;31358;46.008;11.144;2024-01-07T02:56:10;6.40;99.90
45643;DHT22;31358;46.008;11.144;2024-01-07T02:58:36;6.50;99.90
45643;DHT22;31358;46.008;11.144;2024-01-07T03:01:01;6.40;99.90
45643;DHT22;31358;46.008;11.144;2024-01-07T03:03:27;6.50;99.90
45643;DHT22;31358;46.008;11.144;2024-01-07T03:05:52;6.30;99.90
45643;DHT22;31358;46.008;11.144;2024-01-07T03:08:18;6.10;99.90
45643;DHT22;31358;46.008;11.144;2024-01-07T03:10:44;6.30;99.90
45643;DHT22;31358;46.008;11.144;2024-01-07T03:13:10;6.30;99.90
45643;DHT22;31358;46.008;11.144;2024-01-07T03:15:36;6.50;99.90
45643;DHT22;31358;46.008;11.144;2024-01-07T03:18:01;6.30;99.90
45643;DHT22;31358;46.008;11.144;2024-01-07T03:20:27;6.30;99.90
45643;DHT22;31358;46.008;11.144;2024-01-07T03:22:53;6.30;99.90
45643;DHT22;31358;46.008;11.144;2024-01-07T03:25:20;6.40;99.90
45643;DHT22;31358;46.008;11.144;2024-01-07T03:27:46;6.40;99.90
45643;DHT22;31358;46.008;11.144;2024-01-07T03:30:12;6.40;99.90
45643;DHT22;31358;46.008;11.144;2024-01-07T03:32:37;6.40;99.90
45643;DHT22;31358;46.008;11.144;2024-01-07T03:35:03;6.40;99.90
45643;DHT22;31358;46.008;11.144;2024-01-07T03:37:29;6.30;99.90
45643;DHT22;31358;46.008;11.144;2024-01-07T03:39:55;6.30;99.90
45643;DHT22;31358;46.008;11.144;2024-01-07T03:42:20;6.20;99.90
45643;DHT22;31358;46.008;11.144;2024-01-07T03:44:46;6.20;99.90
45643;DHT22;31358;46.008;11.144;2024-01-07T03:47:12;6.20;99.90
45643;DHT22;31358;46.008;11.144;2024-01-07T03:49:37;6.20;99.90
45643;DHT22;31358;46.008;11.144;2024-01-07T03:52:05;6.20;99.90
45643;DHT22;31358;46.008;11.144;2024-01-07T03:54:30;6.10;99.90
45643;DHT22;31358;46.008;11.144;2024-01-07T03:56:56;6.10;99.90
45643;DHT22;31358;46.008;11.144;2024-01-07T03:59:22;6.10;99.90
45643;DHT22;31358;46.008;11.144;2024-01-07T04:01:48;6.20;99.90
45643;DHT22;31358;46.008;11.144;2024-01-07T04:04:14;6.20;99.90
45643;DHT22;31358;46.008;11.144;2024-01-07T04:06:40;6.40;99.90
45643;DHT22;31358;46.008;11.144;2024-01-07T04:09:05;6.40;99.90
45643;DHT22;31358;46.008;11.144;2024-01-07T04:11:31;6.40;99.90
45643;DHT22;31358;46.008;11.144;2024-01-07T04:13:57;6.50;99.90
45643;DHT22;31358;46.008;11.144;2024-01-07T04:16:23;6.50;99.90
45643;DHT22;31358;46.008;11.144;2024-01-07T04:18:48;6.50;99.90
45643;DHT22;31358;46.008;11.144;2024-01-07T04:21:14;6.50;99.90
45643;DHT22;31358;46.008;11.144;2024-01-07T04:23:40;6.50;99.90
45643;DHT22;31358;46.008;11.144;2024-01-07T04:26:09;6.40;99.90
45643;DHT22;31358;46.008;11.144;2024-01-07T04:28:35;6.30;99.90
45643;DHT22;31358;46.008;11.144;2024-01-07T04:31:01;6.50;99.90
45643;DHT22;31358;46.008;11.144;2024-01-07T04:33:26;6.60;99.90
45643;DHT22;31358;46.008;11.144;2024-01-07T04:35:52;6.60;99.90
45643;DHT22;31358;46.008;11.144;2024-01-07T04:38:23;6.70;99.90
45643;DHT22;31358;46.008;11.144;2024-01-07T04:40:49;6.60;99.90
45643;DHT22;31358;46.008;11.144;2024-01-07T04:43:14;6.70;99.90
45643;DHT22;31358;46.008;11.144;2024-01-07T04:45:40;6.90;99.90
45643;DHT22;31358;46.008;11.144;2024-01-07T04:48:06;6.90;99.90
45643;DHT22;31358;46.008;11.144;2024-01-07T04:50:31;6.80;99.90
45643;DHT22;31358;46.008;11.144;2024-01-07T04:52:57;6.80;99.90
45643;DHT22;31358;46.008;11.144;2024-01-07T04:55:23;6.80;99.90
45643;DHT22;31358;46.008;11.144;2024-01-07T04:57:48;6.80;99.90
45643;DHT22;31358;46.008;11.144;2024-01-07T05:00:14;7.00;99.90
45643;DHT22;31358;46.008;11.144;2024-01-07T05:02:40;7.00;99.90
45643;DHT22;31358;46.008;11.144;2024-01-07T05:05:08;7.00;99.90
45643;DHT22;31358;46.008;11.144;2024-01-07T05:07:34;6.90;99.90
45643;DHT22;31358;46.008;11.144;2024-01-07T05:10:00;7.00;99.90
45643;DHT22;31358;46.008;11.144;2024-01-07T05:12:26;6.90;99.90
45643;DHT22;31358;46.008;11.144;2024-01-07T05:14:52;6.80;99.90
45643;DHT22;31358;46.008;11.144;2024-01-07T05:17:17;6.90;99.90
45643;DHT22;31358;46.008;11.144;2024-01-07T05:19:43;6.90;99.90
45643;DHT22;31358;46.008;11.144;2024-01-07T05:22:09;6.80;99.90
45643;DHT22;31358;46.008;11.144;2024-01-07T05:24:38;6.90;99.90
45643;DHT22;31358;46.008;11.144;2024-01-07T05:27:06;6.90;99.90
45643;DHT22;31358;46.008;11.144;2024-01-07T05:29:32;6.80;99.90
45643;DHT22;31358;46.008;11.144;2024-01-07T05:32:01;6.90;99.90
45643;DHT22;31358;46.008;11.144;2024-01-07T05:34:28;6.90;99.90
45643;DHT22;31358;46.008;11.144;2024-01-07T05:36:54;6.90;99.90
45643;DHT22;31358;46.008;11.144;2024-01-07T05:39:19;6.80;99.90
45643;DHT22;31358;46.008;11.144;2024-01-07T05:41:46;6.70;99.90
45643;DHT22;31358;46.008;11.144;2024-01-07T05:44:11;6.80;99.90
45643;DHT22;31358;46.008;11.144;2024-01-07T05:46:41;6.90;99.90
45643;DHT22;31358;46.008;11.144;2024-01-07T05:49:07;6.90;99.90
45643;DHT22;31358;46.008;11.144;2024-01-07T05:51:33;6.80;99.90
45643;DHT22;31358;46.008;11.144;2024-01-07T05:53:59;6.90;99.90
45643;DHT22;31358;46.008;11.144;2024-01-07T05:56:24;6.80;99.90
45643;DHT22;31358;46.008;11.144;2024-01-07T05:58:50;6.90;99.90
45643;DHT22;31358;46.008;11.144;2024-01-07T06:01:22;6.80;99.90
45643;DHT22;31358;46.008;11.144;2024-01-07T06:03:48;6.90;99.90
45643;DHT22;31358;46.008;11.144;2024-01-07T06:06:14;6.90;99.90
45643;DHT22;31358;46.008;11.144;2024-01-07T06:08:43;6.80;99.90
45643;DHT22;31358;46.008;11.144;2024-01-07T06:11:10;6.70;99.90
45643;DHT22;31358;46.008;11.144;2024-01-07T06:13:37;6.70;99.90
45643;DHT22;31358;46.008;11.144;2024-01-07T06:16:03;6.80;99.90
45643;DHT22;31358;46.008;11.144;2024-01-07T06:18:30;6.80;99.90
45643;DHT22;31358;46.008;11.144;2024-01-07T06:20:55;6.80;99.90
45643;DHT22;31358;46.008;11.144;2024-01-07T06:23:21;6.80;99.90
45643;DHT22;31358;46.008;11.144;2024-01-07T06:25:47;6.90;99.90
45643;DHT22;31358;46.008;11.144;2024-01-07T06:28:12;6.90;99.90
45643;DHT22;31358;46.008;11.144;2024-01-07T06:30:38;6.90;99.90
45643;DHT22;31358;46.008;11.144;2024-01-07T06:33:04;6.90;99.90
45643;DHT22;31358;46.008;11.144;2024-01-07T06:35:30;7.00;99.90
45643;DHT22;31358;46.008;11.144;2024-01-07T06:37:56;7.00;99.90
45643;DHT22;31358;46.008;11.144;2024-01-07T06:40:22;7.00;99.90
45643;DHT22;31358;46.008;11.144;2024-01-07T06:42:48;6.90;99.90
45643;DHT22;31358;46.008;11.144;2024-01-07T06:45:15;6.90;99.90
45643;DHT22;31358;46.008;11.144;2024-01-07T06:47:41;6.90;99.90
45643;DHT22;31358;46.008;11.144;2024-01-07T06:50:06;7.00;99.90
45643;DHT22;31358;46.008;11.144;2024-01-07T06:52:33;6.90;99.90
45643;DHT22;31358;46.008;11.144;2024-01-07T06:54:58;6.90;99.90
45643;DHT22;31358;46.008;11.144;2024-01-07T06:57:24;7.00;99.90
45643;DHT22;31358;46.008;11.144;2024-01-07T06:59:50;7.00;99.90
45643;DHT22;31358;46.008;11.144;2024-01-07T07:02:15;7.00;99.90
45643;DHT22;31358;46.008;11.144;2024-01-07T07:04:41;7.10;99.90
45643;DHT22;31358;46.008;11.144;2024-01-07T07:07:07;7.10;99.90
45643;DHT22;31358;46.008;11.144;2024-01-07T07:09:32;7.10;99.90
45643;DHT22;31358;46.008;11.144;2024-01-07T07:11:59;7.10;99.90
45643;DHT22;31358;46.008;11.144;2024-01-07T07:14:25;7.00;99.90
45643;DHT22;31358;46.008;11.144;2024-01-07T07:16:51;6.90;99.90
45643;DHT22;31358;46.008;11.144;2024-01-07T07:19:16;7.10;99.90
45643;DHT22;31358;46.008;11.144;2024-01-07T07:21:43;7.00;99.90
45643;DHT22;31358;46.008;11.144;2024-01-07T07:24:09;7.00;99.90
45643;DHT22;31358;46.008;11.144;2024-01-07T07:26:35;7.20;99.90
45643;DHT22;31358;46.008;11.144;2024-01-07T07:29:06;7.10;99.90
45643;DHT22;31358;46.008;11.144;2024-01-07T07:31:32;7.10;99.90
45643;DHT22;31358;46.008;11.144;2024-01-07T07:33:57;7.10;99.90
45643;DHT22;31358;46.008;11.144;2024-01-07T07:36:23;7.20;99.70
45643;DHT22;31358;46.008;11.144;2024-01-07T07:38:49;7.30;99.80
45643;DHT22;31358;46.008;11.144;2024-01-07T07:41:15;7.20;99.90
45643;DHT22;31358;46.008;11.144;2024-01-07T07:43:40;7.10;99.90
45643;DHT22;31358;46.008;11.144;2024-01-07T07:46:06;7.00;99.90
45643;DHT22;31358;46.008;11.144;2024-01-07T07:48:31;7.20;99.90
45643;DHT22;31358;46.008;11.144;2024-01-07T07:50:57;7.20;99.90
45643;DHT22;31358;46.008;11.144;2024-01-07T07:53:23;7.30;99.90
45643;DHT22;31358;46.008;11.144;2024-01-07T07:55:48;7.30;99.70
45643;DHT22;31358;46.008;11.144;2024-01-07T07:58:15;7.30;99.80
45643;DHT22;31358;46.008;11.144;2024-01-07T08:00:40;7.30;99.90
45643;DHT22;31358;46.008;11.144;2024-01-07T08:03:06;7.20;99.90
45643;DHT22;31358;46.008;11.144;2024-01-07T08:05:32;7.30;99.90
45643;DHT22;31358;46.008;11.144;2024-01-07T08:07:57;7.30;99.90
45643;DHT22;31358;46.008;11.144;2024-01-07T08:10:23;7.30;99.80
45643;DHT22;31358;46.008;11.144;2024-01-07T08:12:50;7.40;99.70
45643;DHT22;31358;46.008;11.144;2024-01-07T08:15:15;7.50;99.00
45643;DHT22;31358;46.008;11.144;2024-01-07T08:17:41;7.40;99.50
45643;DHT22;31358;46.008;11.144;2024-01-07T08:20:07;7.40;99.70
45643;DHT22;31358;46.008;11.144;2024-01-07T08:22:33;7.50;99.50
45643;DHT22;31358;46.008;11.144;2024-01-07T08:24:58;7.40;99.90
45643;DHT22;31358;46.008;11.144;2024-01-07T08:27:24;7.40;99.60
45643;DHT22;31358;46.008;11.144;2024-01-07T08:29:50;7.40;99.80
45643;DHT22;31358;46.008;11.144;2024-01-07T08:32:15;7.40;99.90
45643;DHT22;31358;46.008;11.144;2024-01-07T08:34:41;7.30;99.90
45643;DHT22;31358;46.008;11.144;2024-01-07T08:37:10;7.30;99.90
45643;DHT22;31358;46.008;11.144;2024-01-07T08:39:36;7.30;99.90
45643;DHT22;31358;46.008;11.144;2024-01-07T08:42:02;7.30;99.80
45643;DHT22;31358;46.008;11.144;2024-01-07T08:44:29;7.30;99.90
45643;DHT22;31358;46.008;11.144;2024-01-07T08:46:55;7.40;99.90
45643;DHT22;31358;46.008;11.144;2024-01-07T08:49:20;7.40;99.90
45643;DHT22;31358;46.008;11.144;2024-01-07T08:51:46;7.40;99.90
45643;DHT22;31358;46.008;11.144;2024-01-07T08:54:12;7.50;99.50
45643;DHT22;31358;46.008;11.144;2024-01-07T08:56:38;7.50;99.90
45643;DHT22;31358;46.008;11.144;2024-01-07T08:59:05;7.40;99.70
45643;DHT22;31358;46.008;11.144;2024-01-07T09:01:30;7.40;99.70
45643;DHT22;31358;46.008;11.144;2024-01-07T09:03:56;7.50;99.60
45643;DHT22;31358;46.008;11.144;2024-01-07T09:06:22;7.50;99.50
45643;DHT22;31358;46.008;11.144;2024-01-07T09:08:47;7.50;99.40
45643;DHT22;31358;46.008;11.144;2024-01-07T09:11:13;7.50;99.90
45643;DHT22;31358;46.008;11.144;2024-01-07T09:13:39;7.50;99.90
45643;DHT22;31358;46.008;11.144;2024-01-07T09:16:05;7.40;99.90
45643;DHT22;31358;46.008;11.144;2024-01-07T09:18:30;7.40;99.90
45643;DHT22;31358;46.008;11.144;2024-01-07T09:20:56;7.40;99.90
45643;DHT22;31358;46.008;11.144;2024-01-07T09:23:22;7.40;99.80
45643;DHT22;31358;46.008;11.144;2024-01-07T09:25:48;7.40;99.90
45643;DHT22;31358;46.008;11.144;2024-01-07T09:28:14;7.50;99.80
45643;DHT22;31358;46.008;11.144;2024-01-07T09:30:40;7.50;99.90
45643;DHT22;31358;46.008;11.144;2024-01-07T09:33:06;8.30;99.90
45643;DHT22;31358;46.008;11.144;2024-01-07T09:35:32;7.90;99.80
45643;DHT22;31358;46.008;11.144;2024-01-07T09:37:57;7.60;99.50
45643;DHT22;31358;46.008;11.144;2024-01-07T09:40:23;7.60;99.60
45643;DHT22;31358;46.008;11.144;2024-01-07T09:42:50;7.60;99.80
45643;DHT22;31358;46.008;11.144;2024-01-07T09:45:16;7.70;99.80
45643;DHT22;31358;46.008;11.144;2024-01-07T09:47:44;7.70;99.20
45643;DHT22;31358;46.008;11.144;2024-01-07T09:50:11;7.70;99.70
45643;DHT22;31358;46.008;11.144;2024-01-07T09:52:38;7.70;99.80
45643;DHT22;31358;46.008;11.144;2024-01-07T09:55:09;7.60;99.90
45643;DHT22;31358;46.008;11.144;2024-01-07T09:57:37;7.70;99.30
45643;DHT22;31358;46.008;11.144;2024-01-07T10:00:06;7.70;99.60
45643;DHT22;31358;46.008;11.144;2024-01-07T10:02:33;7.70;99.50
45643;DHT22;31358;46.008;11.144;2024-01-07T10:04:59;7.70;99.60
45643;DHT22;31358;46.008;11.144;2024-01-07T10:07:25;7.70;99.60
45643;DHT22;31358;46.008;11.144;2024-01-07T10:09:52;7.70;99.90
45643;DHT22;31358;46.008;11.144;2024-01-07T10:12:22;7.70;99.40
45643;DHT22;31358;46.008;11.144;2024-01-07T10:14:48;7.80;99.90
45643;DHT22;31358;46.008;11.144;2024-01-07T10:17:15;7.70;99.90
45643;DHT22;31358;46.008;11.144;2024-01-07T10:19:46;7.80;99.40
45643;DHT22;31358;46.008;11.144;2024-01-07T10:22:13;7.70;99.50
45643;DHT22;31358;46.008;11.144;2024-01-07T10:24:40;7.70;99.50
45643;DHT22;31358;46.008;11.144;2024-01-07T10:27:07;7.70;99.90
45643;DHT22;31358;46.008;11.144;2024-01-07T10:29:33;7.70;99.70
45643;DHT22;31358;46.008;11.144;2024-01-07T10:32:02;7.80;99.80
45643;DHT22;31358;46.008;11.144;2024-01-07T10:34:35;7.80;99.90
45643;DHT22;31358;46.008;11.144;2024-01-07T10:37:02;7.80;99.80
45643;DHT22;31358;46.008;11.144;2024-01-07T10:39:28;7.80;99.60
45643;DHT22;31358;46.008;11.144;2024-01-07T10:41:55;7.90;99.90
45643;DHT22;31358;46.008;11.144;2024-01-07T10:44:29;7.90;99.30
45643;DHT22;31358;46.008;11.144;2024-01-07T10:46:59;8.00;99.90
45643;DHT22;31358;46.008;11.144;2024-01-07T10:49:26;8.00;99.90
45643;DHT22;31358;46.008;11.144;2024-01-07T10:52:07;8.00;99.00
45643;DHT22;31358;46.008;11.144;2024-01-07T10:54:35;8.10;99.60
45643;DHT22;31358;46.008;11.144;2024-01-07T10:57:16;8.10;99.00
45643;DHT22;31358;46.008;11.144;2024-01-07T10:59:47;8.10;99.40
45643;DHT22;31358;46.008;11.144;2024-01-07T11:02:15;8.10;99.30
45643;DHT22;31358;46.008;11.144;2024-01-07T11:05:08;8.10;99.40
45643;DHT22;31358;46.008;11.144;2024-01-07T11:08:05;8.10;98.80
45643;DHT22;31358;46.008;11.144;2024-01-07T11:10:38;8.20;98.60
45643;DHT22;31358;46.008;11.144;2024-01-07T11:13:05;8.20;99.10
45643;DHT22;31358;46.008;11.144;2024-01-07T11:18:21;8.30;98.30
45643;DHT22;31358;46.008;11.144;2024-01-07T11:20:48;8.20;99.00
45643;DHT22;31358;46.008;11.144;2024-01-07T11:23:33;8.30;98.60
45643;DHT22;31358;46.008;11.144;2024-01-07T11:26:02;8.20;98.40
45643;DHT22;31358;46.008;11.144;2024-01-07T11:28:47;8.30;98.10
45643;DHT22;31358;46.008;11.144;2024-01-07T11:31:14;8.30;97.80
45643;DHT22;31358;46.008;11.144;2024-01-07T11:33:46;8.40;98.00
45643;DHT22;31358;46.008;11.144;2024-01-07T11:36:12;8.40;98.30
45643;DHT22;31358;46.008;11.144;2024-01-07T11:38:42;8.40;98.10
45643;DHT22;31358;46.008;11.144;2024-01-07T11:41:09;8.40;98.40
45643;DHT22;31358;46.008;11.144;2024-01-07T11:43:36;8.40;98.50
45643;DHT22;31358;46.008;11.144;2024-01-07T11:46:02;8.40;98.60
45643;DHT22;31358;46.008;11.144;2024-01-07T11:48:28;8.40;99.20
45643;DHT22;31358;46.008;11.144;2024-01-07T11:50:54;8.40;99.20
45643;DHT22;31358;46.008;11.144;2024-01-07T11:53:20;8.40;98.40
45643;DHT22;31358;46.008;11.144;2024-01-07T11:55:46;8.40;98.40
45643;DHT22;31358;46.008;11.144;2024-01-07T11:58:12;8.40;98.40
45643;DHT22;31358;46.008;11.144;2024-01-07T12:00:38;8.50;98.90
45643;DHT22;31358;46.008;11.144;2024-01-07T12:03:04;8.50;98.80
45643;DHT22;31358;46.008;11.144;2024-01-07T12:05:30;8.50;98.10
45643;DHT22;31358;46.008;11.144;2024-01-07T12:07:56;8.60;97.90
45643;DHT22;31358;46.008;11.144;2024-01-07T12:10:26;8.60;98.00
45643;DHT22;31358;46.008;11.144;2024-01-07T12:12:52;8.60;98.10
45643;DHT22;31358;46.008;11.144;2024-01-07T12:15:20;8.70;98.40
45643;DHT22;31358;46.008;11.144;2024-01-07T12:17:55;8.70;98.40
45643;DHT22;31358;46.008;11.144;2024-01-07T12:20:27;8.70;98.20
45643;DHT22;31358;46.008;11.144;2024-01-07T12:22:57;8.80;97.90
45643;DHT22;31358;46.008;11.144;2024-01-07T12:25:23;8.80;97.90
45643;DHT22;31358;46.008;11.144;2024-01-07T12:27:58;8.80;97.50
45643;DHT22;31358;46.008;11.144;2024-01-07T12:30:27;8.80;98.80
45643;DHT22;31358;46.008;11.144;2024-01-07T12:33:04;8.80;98.30
45643;DHT22;31358;46.008;11.144;2024-01-07T12:35:31;8.70;97.80
45643;DHT22;31358;46.008;11.144;2024-01-07T12:37:59;8.70;98.20
45643;DHT22;31358;46.008;11.144;2024-01-07T12:40:25;8.70;98.20
45643;DHT22;31358;46.008;11.144;2024-01-07T12:42:53;8.70;97.90
45643;DHT22;31358;46.008;11.144;2024-01-07T12:45:22;8.70;98.10
45643;DHT22;31358;46.008;11.144;2024-01-07T12:47:48;8.70;98.10
45643;DHT22;31358;46.008;11.144;2024-01-07T12:50:14;8.60;97.20
45643;DHT22;31358;46.008;11.144;2024-01-07T12:52:41;8.70;97.20
45643;DHT22;31358;46.008;11.144;2024-01-07T12:55:07;8.70;97.40
45643;DHT22;31358;46.008;11.144;2024-01-07T12:57:34;8.80;98.10
45643;DHT22;31358;46.008;11.144;2024-01-07T13:00:00;8.90;97.00
45643;DHT22;31358;46.008;11.144;2024-01-07T13:02:26;8.80;97.40
45643;DHT22;31358;46.008;11.144;2024-01-07T13:04:52;9.00;98.70
45643;DHT22;31358;46.008;11.144;2024-01-07T13:07:17;8.90;98.70
45643;DHT22;31358;46.008;11.144;2024-01-07T13:09:43;8.80;97.40
45643;DHT22;31358;46.008;11.144;2024-01-07T13:12:10;8.80;97.20
45643;DHT22;31358;46.008;11.144;2024-01-07T13:14:36;8.90;97.60
45643;DHT22;31358;46.008;11.144;2024-01-07T13:17:02;8.80;97.70
45643;DHT22;31358;46.008;11.144;2024-01-07T13:19:29;8.90;97.00
45643;DHT22;31358;46.008;11.144;2024-01-07T13:21:55;8.90;97.90
45643;DHT22;31358;46.008;11.144;2024-01-07T13:24:23;8.90;97.20
45643;DHT22;31358;46.008;11.144;2024-01-07T13:26:49;8.90;97.60
45643;DHT22;31358;46.008;11.144;2024-01-07T13:29:15;9.00;96.10
45643;DHT22;31358;46.008;11.144;2024-01-07T13:31:40;9.00;97.20
45643;DHT22;31358;46.008;11.144;2024-01-07T13:34:06;8.90;97.60
45643;DHT22;31358;46.008;11.144;2024-01-07T13:36:32;8.90;96.60
45643;DHT22;31358;46.008;11.144;2024-01-07T13:39:03;9.00;96.10
45643;DHT22;31358;46.008;11.144;2024-01-07T13:41:31;9.00;96.50
45643;DHT22;31358;46.008;11.144;2024-01-07T13:44:00;9.00;95.80
45643;DHT22;31358;46.008;11.144;2024-01-07T13:46:28;9.00;96.20
45643;DHT22;31358;46.008;11.144;2024-01-07T13:48:57;9.00;96.60
45643;DHT22;31358;46.008;11.144;2024-01-07T13:51:31;9.00;96.40
45643;DHT22;31358;46.008;11.144;2024-01-07T13:53:57;9.00;96.40
45643;DHT22;31358;46.008;11.144;2024-01-07T13:56:22;8.90;96.60
45643;DHT22;31358;46.008;11.144;2024-01-07T13:58:48;8.90;96.40
45643;DHT22;31358;46.008;11.144;2024-01-07T14:01:15;8.90;96.50
45643;DHT22;31358;46.008;11.144;2024-01-07T14:03:41;8.90;96.30
45643;DHT22;31358;46.008;11.144;2024-01-07T14:06:07;8.90;96.20
45643;DHT22;31358;46.008;11.144;2024-01-07T14:08:33;8.80;96.90
45643;DHT22;31358;46.008;11.144;2024-01-07T14:10:59;8.80;96.50
45643;DHT22;31358;46.008;11.144;2024-01-07T14:13:24;8.90;96.30
45643;DHT22;31358;46.008;11.144;2024-01-07T14:15:50;8.90;96.40
45643;DHT22;31358;46.008;11.144;2024-01-07T14:18:16;8.80;97.70
45643;DHT22;31358;46.008;11.144;2024-01-07T14:20:42;8.80;97.10
45643;DHT22;31358;46.008;11.144;2024-01-07T14:23:08;8.80;96.60
45643;DHT22;31358;46.008;11.144;2024-01-07T14:25:35;8.70;96.90
45643;DHT22;31358;46.008;11.144;2024-01-07T14:28:01;8.90;95.90
45643;DHT22;31358;46.008;11.144;2024-01-07T14:30:26;8.90;96.00
45643;DHT22;31358;46.008;11.144;2024-01-07T14:32:53;9.10;95.30
45643;DHT22;31358;46.008;11.144;2024-01-07T14:35:18;9.00;96.00
45643;DHT22;31358;46.008;11.144;2024-01-07T14:37:44;9.00;95.90
45643;DHT22;31358;46.008;11.144;2024-01-07T14:40:10;8.90;96.70
45643;DHT22;31358;46.008;11.144;2024-01-07T14:42:36;9.00;95.50
45643;DHT22;31358;46.008;11.144;2024-01-07T14:45:02;9.00;95.40
45643;DHT22;31358;46.008;11.144;2024-01-07T14:47:29;9.00;96.00
45643;DHT22;31358;46.008;11.144;2024-01-07T14:49:55;9.00;95.30
45643;DHT22;31358;46.008;11.144;2024-01-07T14:52:23;9.10;95.60
45643;DHT22;31358;46.008;11.144;2024-01-07T14:54:50;9.00;95.90
45643;DHT22;31358;46.008;11.144;2024-01-07T14:57:16;9.00;95.40
45643;DHT22;31358;46.008;11.144;2024-01-07T14:59:41;9.10;95.10
45643;DHT22;31358;46.008;11.144;2024-01-07T15:02:07;9.00;95.60
45643;DHT22;31358;46.008;11.144;2024-01-07T15:04:33;9.10;95.10
45643;DHT22;31358;46.008;11.144;2024-01-07T15:06:58;9.20;95.00
45643;DHT22;31358;46.008;11.144;2024-01-07T15:09:24;9.20;94.80
45643;DHT22;31358;46.008;11.144;2024-01-07T15:11:50;9.10;95.20
45643;DHT22;31358;46.008;11.144;2024-01-07T15:14:16;9.20;94.70
45643;DHT22;31358;46.008;11.144;2024-01-07T15:16:41;9.10;95.30
45643;DHT22;31358;46.008;11.144;2024-01-07T15:19:07;9.00;95.30
45643;DHT22;31358;46.008;11.144;2024-01-07T15:21:33;9.10;95.00
45643;DHT22;31358;46.008;11.144;2024-01-07T15:23:58;9.30;94.50
45643;DHT22;31358;46.008;11.144;2024-01-07T15:26:24;9.10;95.10
45643;DHT22;31358;46.008;11.144;2024-01-07T15:28:50;9.00;95.40